createdAt,value
2022-09-20T00:01:09.804Z,101367.81
2022-09-20T00:03:39.016Z,101364.31
2022-09-20T00:06:09.549Z,101361.63
2022-09-20T00:08:38.660Z,101364.31
2022-09-20T00:11:08.945Z,101363.47
2022-09-20T00:13:37.729Z,101371.41
2022-09-20T00:16:08.829Z,101362.56
2022-09-20T00:18:37.519Z,101359.06
2022-09-20T00:21:06.135Z,101359.94
2022-09-20T00:23:35.371Z,101363.50
2022-09-20T00:26:05.316Z,101367.03
2022-09-20T00:28:33.610Z,101359.97
2022-09-20T00:31:01.699Z,101359.06
2022-09-20T00:33:44.724Z,101357.31
2022-09-20T00:36:12.596Z,101354.69
2022-09-20T00:38:40.534Z,101362.63
2022-09-20T00:41:08.374Z,101360.84
2022-09-20T00:43:38.466Z,101359.97
2022-09-20T00:46:10.281Z,101367.97
2022-09-20T00:48:39.622Z,101366.19
2022-09-20T00:51:12.352Z,101360.03
2022-09-20T00:53:43.135Z,101363.56
2022-09-20T00:56:16.306Z,101364.47
2022-09-20T00:58:50.879Z,101366.28
2022-09-20T01:01:19.213Z,101373.31
2022-09-20T01:03:49.976Z,101373.31
2022-09-20T01:06:18.907Z,101375.13
2022-09-20T01:08:51.734Z,101382.19
2022-09-20T01:11:19.606Z,101366.28
2022-09-20T01:13:47.413Z,101376.91
2022-09-20T01:16:17.308Z,101377.81
2022-09-20T01:18:47.190Z,101381.34
2022-09-20T01:21:18.191Z,101378.72
2022-09-20T01:23:53.229Z,101374.34
2022-09-20T01:26:45.141Z,101373.47
2022-09-20T01:29:26.716Z,101367.31
2022-09-20T01:31:56.336Z,101362.88
2022-09-20T01:34:32.477Z,101369.06
2022-09-20T01:37:07.507Z,101375.25
2022-09-20T01:39:45.688Z,101373.47
2022-09-20T01:42:15.432Z,101372.59
2022-09-20T01:44:59.585Z,101372.56
2022-09-20T01:47:36.380Z,101373.34
2022-09-20T01:50:13.311Z,101370.72
2022-09-20T01:53:05.342Z,101368.03
2022-09-20T01:55:59.629Z,101368.03
2022-09-20T01:59:24.988Z,101374.25
2022-09-20T02:02:18.054Z,101376.88
2022-09-20T02:05:06.675Z,101377.72
2022-09-20T02:07:58.957Z,101384.78
2022-09-20T02:10:42.549Z,101376.84
2022-09-20T02:13:16.610Z,101382.13
2022-09-20T02:16:05.821Z,101388.34
2022-09-20T02:18:56.738Z,101394.53
2022-09-20T02:21:31.217Z,101387.47
2022-09-20T02:24:10.236Z,101399.84
2022-09-20T02:26:46.253Z,101396.31
2022-09-20T02:29:27.004Z,101394.56
2022-09-20T02:32:08.284Z,101396.34
2022-09-20T02:35:04.371Z,101397.22
2022-09-20T02:38:09.719Z,101396.25
2022-09-20T02:40:55.826Z,101394.47
2022-09-20T02:43:31.549Z,101403.25
2022-09-20T02:46:06.110Z,101394.50
2022-09-20T02:48:40.189Z,101402.41
2022-09-20T02:51:21.344Z,101407.69
2022-09-20T02:54:00.848Z,101409.41
2022-09-20T02:56:35.584Z,101402.34
2022-09-20T02:59:10.611Z,101410.19
2022-09-20T03:01:48.473Z,101410.16
2022-09-20T03:04:26.533Z,101414.53
2022-09-20T03:07:03.593Z,101406.59
2022-09-20T03:09:39.252Z,101403.94
2022-09-20T03:12:20.968Z,101412.72
2022-09-20T03:14:58.582Z,101410.94
2022-09-20T03:17:36.543Z,101408.28
2022-09-20T03:20:21.721Z,101409.13
2022-09-20T03:22:59.978Z,101406.47
2022-09-20T03:25:52.931Z,101415.25
2022-09-20T03:28:38.144Z,101410.88
2022-09-20T03:31:20.651Z,101411.72
2022-09-20T03:33:57.625Z,101417.88
2022-09-20T03:36:41.301Z,101417.00
2022-09-20T03:39:31.201Z,101418.72
2022-09-20T03:42:08.599Z,101424.94
2022-09-20T03:45:15.029Z,101421.41
2022-09-20T03:48:06.527Z,101424.00
2022-09-20T03:50:57.952Z,101424.03
2022-09-20T03:53:47.545Z,101417.78
2022-09-20T03:56:58.792Z,101418.66
2022-09-20T03:59:44.070Z,101420.44
2022-09-20T04:02:29.139Z,101420.50
2022-09-20T04:05:00.610Z,101431.06
2022-09-20T04:07:39.709Z,101438.13
2022-09-20T04:10:25.631Z,101436.38
2022-09-20T04:13:18.485Z,101438.06
2022-09-20T04:16:06.837Z,101432.75
2022-09-20T04:18:39.120Z,101435.38
2022-09-20T04:21:15.080Z,101434.50
2022-09-20T04:23:51.751Z,101445.09
2022-09-20T04:26:26.926Z,101448.66
2022-09-20T04:29:03.120Z,101441.56
2022-09-20T04:31:38.198Z,101441.59
2022-09-20T04:34:14.660Z,101441.59
2022-09-20T04:36:58.185Z,101445.09
2022-09-20T04:39:40.396Z,101452.16
2022-09-20T04:43:05.106Z,101450.34
2022-09-20T04:45:57.853Z,101450.38
2022-09-20T04:49:15.417Z,101460.09
2022-09-20T04:52:10.816Z,101461.94
2022-09-20T04:55:04.852Z,101469.91
2022-09-20T04:58:06.318Z,101464.59
2022-09-20T05:00:53.658Z,101467.25
2022-09-20T05:03:39.035Z,101465.47
2022-09-20T05:06:39.411Z,101471.63
2022-09-20T05:09:25.491Z,101474.28
2022-09-20T05:12:11.906Z,101473.34
2022-09-20T05:15:08.094Z,101473.28
2022-09-20T05:17:54.060Z,101483.88
2022-09-20T05:20:44.731Z,101483.81
2022-09-20T05:23:40.691Z,101480.25
2022-09-20T05:26:13.571Z,101489.13
2022-09-20T05:28:53.317Z,101486.41
2022-09-20T05:31:30.976Z,101489.03
2022-09-20T05:34:09.588Z,101496.09
2022-09-20T05:36:49.811Z,101498.69
2022-09-20T05:39:30.240Z,101499.56
2022-09-20T05:42:01.649Z,101503.09
2022-09-20T05:44:42.558Z,101501.31
2022-09-20T05:47:19.052Z,101507.44
2022-09-20T05:50:00.053Z,101508.31
2022-09-20T05:52:43.139Z,101510.06
2022-09-20T05:55:31.749Z,101512.69
2022-09-20T05:58:23.559Z,101517.97
2022-09-20T06:00:59.287Z,101527.78
2022-09-20T06:03:37.294Z,101529.53
2022-09-20T06:06:14.889Z,101524.13
2022-09-20T06:09:22.019Z,101528.50
2022-09-20T06:12:04.828Z,101524.84
2022-09-20T06:14:41.184Z,101534.56
2022-09-20T06:17:22.053Z,101534.53
2022-09-20T06:19:53.831Z,101530.06
2022-09-20T06:22:28.775Z,101530.16
2022-09-20T06:25:04.158Z,101530.09
2022-09-20T06:27:37.150Z,101532.66
2022-09-20T06:30:09.093Z,101528.34
2022-09-20T06:32:53.342Z,101533.53
2022-09-20T06:35:22.018Z,101530.03
2022-09-20T06:38:14.937Z,101538.78
2022-09-20T06:41:04.970Z,101537.09
2022-09-20T06:43:32.777Z,101535.31
2022-09-20T06:46:00.548Z,101546.66
2022-09-20T06:48:30.315Z,101547.50
2022-09-20T06:50:58.889Z,101548.34
2022-09-20T06:53:32.467Z,101551.78
2022-09-20T06:56:01.634Z,101557.94
2022-09-20T06:58:29.593Z,101557.84
2022-09-20T07:00:57.426Z,101558.78
2022-09-20T07:03:25.258Z,101556.97
2022-09-20T07:05:53.444Z,101564.06
2022-09-20T07:08:21.174Z,101564.06
2022-09-20T07:10:50.899Z,101570.44
2022-09-20T07:13:20.801Z,101559.63
2022-09-20T07:15:48.672Z,101563.13
2022-09-20T07:18:16.460Z,101569.16
2022-09-20T07:20:44.662Z,101569.06
2022-09-20T07:23:12.426Z,101574.22
2022-09-20T07:25:40.212Z,101581.28
2022-09-20T07:28:09.336Z,101584.66
2022-09-20T07:30:37.137Z,101577.44
2022-09-20T07:33:05.073Z,101584.41
2022-09-20T07:35:32.812Z,101576.31
2022-09-20T07:38:00.881Z,101582.28
2022-09-20T07:40:28.674Z,101580.28
2022-09-20T07:42:57.518Z,101579.84
2022-09-20T07:45:26.929Z,101590.56
2022-09-20T07:47:54.787Z,101593.13
2022-09-20T07:50:22.644Z,101590.63
2022-09-20T07:52:50.548Z,101596.22
2022-09-20T07:55:18.342Z,101597.25
2022-09-20T07:57:46.441Z,101602.56
2022-09-20T08:00:14.553Z,101596.28
2022-09-20T08:02:44.985Z,101605.25
2022-09-20T08:05:12.940Z,101597.34
2022-09-20T08:07:40.675Z,101614.22
2022-09-20T08:10:09.479Z,101615.81
2022-09-20T08:15:25.028Z,101616.31
2022-09-20T08:17:54.182Z,101621.41
2022-09-20T08:20:21.956Z,101615.47
2022-09-20T08:23:06.282Z,101610.72
2022-09-20T08:25:38.325Z,101616.75
2022-09-20T08:28:06.086Z,101613.69
2022-09-20T08:30:33.812Z,101618.78
2022-09-20T08:33:04.861Z,101621.22
2022-09-20T08:35:32.722Z,101622.41
2022-09-20T08:39:57.294Z,101622.19
2022-09-20T08:40:49.433Z,101627.53
2022-09-20T08:43:22.338Z,101637.47
2022-09-20T08:45:50.842Z,101634.69
2022-09-20T08:48:23.922Z,101636.50
2022-09-20T08:50:51.779Z,101637.66
2022-09-20T08:53:21.455Z,101637.66
2022-09-20T08:55:49.659Z,101636.59
2022-09-20T08:58:19.181Z,101644.50
2022-09-20T09:00:47.989Z,101638.00
2022-09-20T09:03:18.482Z,101648.53
2022-09-20T09:05:50.342Z,101646.59
2022-09-20T09:08:19.826Z,101645.38
2022-09-20T09:10:54.598Z,101653.16
2022-09-20T09:13:28.060Z,101649.81
2022-09-20T09:15:59.752Z,101654.47
2022-09-20T09:18:34.826Z,101655.59
2022-09-20T09:21:05.327Z,101658.50
2022-09-20T09:23:41.230Z,101662.03
2022-09-20T09:26:17.436Z,101656.38
2022-09-20T09:28:45.320Z,101660.47
2022-09-20T09:31:15.960Z,101652.44
2022-09-20T09:33:47.071Z,101653.00
2022-09-20T09:36:19.044Z,101660.28
2022-09-20T09:38:48.005Z,101655.63
2022-09-20T09:41:30.406Z,101657.94
2022-09-20T09:44:02.654Z,101661.41
2022-09-20T09:46:33.964Z,101655.94
2022-09-20T09:49:11.614Z,101654.09
2022-09-20T09:51:46.106Z,101651.25
2022-09-20T09:54:19.846Z,101649.34
2022-09-20T09:57:02.043Z,101655.50
2022-09-20T09:59:40.307Z,101652.56
2022-09-20T10:02:28.968Z,101656.16
2022-09-20T10:05:04.742Z,101658.28
2022-09-20T10:07:43.998Z,101658.44
2022-09-20T10:10:24.925Z,101650.84
2022-09-20T10:13:05.941Z,101653.88
2022-09-20T10:15:39.858Z,101650.88
2022-09-20T10:18:24.124Z,101654.66
2022-09-20T10:21:07.761Z,101644.97
2022-09-20T10:24:04.228Z,101647.44
2022-09-20T10:27:03.083Z,101643.81
2022-09-20T10:29:43.350Z,101648.44
2022-09-20T10:32:28.266Z,101647.09
2022-09-20T10:35:15.094Z,101646.13
2022-09-20T10:37:55.801Z,101640.09
2022-09-20T10:40:47.946Z,101633.31
2022-09-20T10:43:35.672Z,101639.63
2022-09-20T10:46:31.323Z,101639.97
2022-09-20T10:49:05.625Z,101644.91
2022-09-20T10:51:48.003Z,101639.94
2022-09-20T10:54:33.171Z,101638.81
2022-09-20T10:57:21.043Z,101638.41
2022-09-20T10:59:53.199Z,101639.06
2022-09-20T11:02:42.884Z,101637.16
2022-09-20T11:05:33.036Z,101640.25
2022-09-20T11:08:08.952Z,101636.63
2022-09-20T11:10:43.035Z,101635.50
2022-09-20T11:13:23.423Z,101638.53
2022-09-20T11:16:01.750Z,101637.59
2022-09-20T11:18:40.437Z,101637.25
2022-09-20T11:21:16.564Z,101637.16
2022-09-20T11:23:53.919Z,101639.13
2022-09-20T11:26:29.404Z,101648.19
2022-09-20T11:29:04.440Z,101646.72
2022-09-20T11:31:37.388Z,101649.06
2022-09-20T11:34:13.491Z,101651.25
2022-09-20T11:36:53.573Z,101648.94
2022-09-20T11:39:27.645Z,101649.81
2022-09-20T11:41:57.749Z,101649.53
2022-09-20T11:44:27.491Z,101645.00
2022-09-20T11:47:04.646Z,101651.22
2022-09-20T11:49:53.852Z,101646.34
2022-09-20T11:52:31.042Z,101647.94
2022-09-20T11:55:17.367Z,101647.53
2022-09-20T11:57:45.771Z,101642.59
2022-09-20T12:00:17.683Z,101639.56
2022-09-20T12:02:53.090Z,101641.78
2022-09-20T12:05:28.651Z,101649.97
2022-09-20T12:07:59.559Z,101652.78
2022-09-20T12:10:30.617Z,101647.50
2022-09-20T12:13:01.239Z,101656.31
2022-09-20T12:15:33.019Z,101645.41
2022-09-20T12:18:48.559Z,101646.06
2022-09-20T12:21:18.880Z,101650.31
2022-09-20T12:24:22.402Z,101651.47
2022-09-20T12:26:56.935Z,101646.09
2022-09-20T12:30:06.420Z,101641.25
2022-09-20T12:32:43.536Z,101638.06
2022-09-20T12:36:00.535Z,101649.16
2022-09-20T12:38:32.545Z,101638.06
2022-09-20T12:41:07.864Z,101642.72
2022-09-20T12:43:38.716Z,101641.06
2022-09-20T12:46:11.860Z,101639.78
2022-09-20T12:48:41.504Z,101646.34
2022-09-20T12:51:43.249Z,101643.78
2022-09-20T12:54:14.202Z,101648.59
2022-09-20T12:56:46.624Z,101645.66
2022-09-20T12:59:23.218Z,101647.00
2022-09-20T13:01:51.871Z,101637.25
2022-09-20T13:04:55.412Z,101643.13
2022-09-20T13:07:44.911Z,101640.00
2022-09-20T13:10:33.554Z,101642.94
2022-09-20T13:13:27.046Z,101634.34
2022-09-20T13:15:56.411Z,101639.13
2022-09-20T13:18:27.443Z,101642.25
2022-09-20T13:21:02.836Z,101639.75
2022-09-20T13:23:34.262Z,101640.13
2022-09-20T13:26:05.122Z,101646.88
2022-09-20T13:28:38.568Z,101654.88
2022-09-20T13:31:31.301Z,101661.44
2022-09-20T13:34:16.932Z,101674.16
2022-09-20T13:36:47.644Z,101668.84
2022-09-20T13:39:26.996Z,101671.69
2022-09-20T13:41:54.900Z,101670.09
2022-09-20T13:44:25.478Z,101676.84
2022-09-20T13:46:53.276Z,101678.63
2022-09-20T13:49:23.665Z,101683.19
2022-09-20T13:51:53.150Z,101683.53
2022-09-20T13:54:30.011Z,101691.25
2022-09-20T13:57:02.552Z,101684.56
2022-09-20T13:59:40.220Z,101683.00
2022-09-20T14:02:22.259Z,101679.94
2022-09-20T14:04:55.967Z,101679.66
2022-09-20T14:07:34.002Z,101675.53
2022-09-20T14:10:06.188Z,101678.00
2022-09-20T14:12:35.766Z,101678.47
2022-09-20T14:15:08.532Z,101677.59
2022-09-20T14:17:37.285Z,101683.78
2022-09-20T14:20:06.413Z,101683.84
2022-09-20T14:22:35.892Z,101684.69
2022-09-20T14:25:19.875Z,101679.19
2022-09-20T14:27:47.965Z,101682.03
2022-09-20T14:30:35.477Z,101684.84
2022-09-20T14:33:06.469Z,101675.69
2022-09-20T14:35:34.901Z,101676.97
2022-09-20T14:38:10.242Z,101678.06
2022-09-20T14:40:44.595Z,101675.31
2022-09-20T14:43:25.494Z,101682.47
2022-09-20T14:45:56.097Z,101673.09
2022-09-20T14:48:36.860Z,101679.28
2022-09-20T14:51:23.370Z,101677.94
2022-09-20T14:53:53.969Z,101681.94
2022-09-20T14:56:33.884Z,101683.25
2022-09-20T14:59:21.320Z,101682.88
2022-09-20T15:01:58.691Z,101675.44
2022-09-20T15:04:28.685Z,101682.31
2022-09-20T15:06:58.803Z,101678.88
2022-09-20T15:09:28.227Z,101683.00
2022-09-20T15:12:04.718Z,101681.44
2022-09-20T15:14:37.437Z,101679.69
2022-09-20T15:17:06.626Z,101680.75
2022-09-20T15:19:34.543Z,101673.81
2022-09-20T15:22:02.622Z,101683.88
2022-09-20T15:24:31.941Z,101681.00
2022-09-20T15:26:59.968Z,101679.25
2022-09-20T15:29:28.190Z,101678.00
2022-09-20T15:31:56.257Z,101680.72
2022-09-20T15:34:24.418Z,101682.22
2022-09-20T15:36:53.983Z,101689.03
2022-09-20T15:39:34.881Z,101684.03
2022-09-20T15:42:03.925Z,101685.28
2022-09-20T15:44:32.585Z,101683.97
2022-09-20T15:47:01.681Z,101686.78
2022-09-20T15:49:31.092Z,101687.94
2022-09-20T15:52:00.364Z,101691.75
2022-09-20T15:54:29.248Z,101682.13
2022-09-20T15:56:58.687Z,101677.03
2022-09-20T15:59:28.470Z,101677.28
2022-09-20T16:01:56.354Z,101680.03
2022-09-20T16:04:27.181Z,101686.06
2022-09-20T16:06:55.282Z,101681.44
2022-09-20T16:09:23.357Z,101689.16
2022-09-20T16:11:51.381Z,101684.06
2022-09-20T16:14:23.044Z,101690.91
2022-09-20T16:16:51.681Z,101694.91
2022-09-20T16:19:20.488Z,101696.59
2022-09-20T16:21:55.091Z,101707.56
2022-09-20T16:24:25.586Z,101706.59
2022-09-20T16:26:53.914Z,101709.28
2022-09-20T16:29:25.044Z,101708.63
2022-09-20T16:31:55.127Z,101705.31
2022-09-20T16:34:26.267Z,101707.56
2022-09-20T16:36:56.829Z,101714.81
2022-09-20T16:39:26.219Z,101716.03
2022-09-20T16:41:55.725Z,101715.78
2022-09-20T16:44:25.564Z,101724.38
2022-09-20T16:46:53.424Z,101715.63
2022-09-20T16:49:21.295Z,101721.75
2022-09-20T16:51:49.145Z,101725.81
2022-09-20T16:54:18.265Z,101732.94
2022-09-20T16:56:47.435Z,101729.06
2022-09-20T16:59:17.952Z,101740.25
2022-09-20T17:01:47.969Z,101733.72
2022-09-20T17:04:18.256Z,101744.19
2022-09-20T17:06:47.105Z,101743.91
2022-09-20T17:09:16.658Z,101755.78
2022-09-20T17:11:47.196Z,101749.06
2022-09-20T17:14:17.210Z,101756.50
2022-09-20T17:16:47.546Z,101762.16
2022-09-20T17:19:18.813Z,101763.16
2022-09-20T17:21:50.241Z,101769.66
2022-09-20T17:24:19.995Z,101772.41
2022-09-20T17:26:48.673Z,101775.31
2022-09-20T17:29:18.322Z,101772.81
2022-09-20T17:31:54.404Z,101780.00
2022-09-20T17:34:26.258Z,101779.25
2022-09-20T17:36:55.622Z,101782.06
2022-09-20T17:39:23.815Z,101787.50
2022-09-20T17:41:52.159Z,101788.53
2022-09-20T17:44:20.532Z,101790.44
2022-09-20T17:46:50.503Z,101791.44
2022-09-20T17:49:20.428Z,101798.66
2022-09-20T17:51:50.953Z,101812.91
2022-09-20T17:54:20.281Z,101808.56
2022-09-20T17:56:50.508Z,101809.53
2022-09-20T17:59:20.234Z,101813.19
2022-09-20T18:01:50.558Z,101822.13
2022-09-20T18:04:20.994Z,101825.75
2022-09-20T18:06:52.290Z,101825.81
2022-09-20T18:09:22.602Z,101827.72
2022-09-20T18:11:53.007Z,101826.00
2022-09-20T18:14:23.739Z,101834.03
2022-09-20T18:16:53.247Z,101844.69
2022-09-20T18:19:22.744Z,101844.78
2022-09-20T18:21:54.959Z,101843.03
2022-09-20T18:24:22.763Z,101843.97
2022-09-20T18:26:51.404Z,101848.47
2022-09-20T18:29:19.611Z,101851.16
2022-09-20T18:31:49.782Z,101852.13
2022-09-20T18:34:19.216Z,101847.72
2022-09-20T18:36:52.479Z,101847.72
2022-09-20T18:39:23.198Z,101854.88
2022-09-20T18:41:52.928Z,101854.94
2022-09-20T18:44:21.946Z,101856.75
2022-09-20T18:46:50.717Z,101861.25
2022-09-20T18:49:20.593Z,101863.13
2022-09-20T18:51:50.086Z,101861.34
2022-09-20T18:54:19.023Z,101869.34
2022-09-20T18:56:50.399Z,101870.25
2022-09-20T18:59:20.534Z,101874.72
2022-09-20T19:02:11.724Z,101874.78
2022-09-20T19:05:01.172Z,101875.72
2022-09-20T19:07:39.129Z,101874.88
2022-09-20T19:10:14.599Z,101882.88
2022-09-20T19:12:51.122Z,101884.72
2022-09-20T19:15:41.192Z,101886.56
2022-09-20T19:18:27.075Z,101893.72
2022-09-20T19:20:59.547Z,101896.41
2022-09-20T19:23:42.912Z,101898.25
2022-09-20T19:26:20.718Z,101895.59
2022-09-20T19:28:51.237Z,101905.38
2022-09-20T19:31:24.443Z,101908.94
2022-09-20T19:33:55.045Z,101912.50
2022-09-20T19:36:23.781Z,101915.19
2022-09-20T19:39:03.835Z,101918.75
2022-09-20T19:41:47.263Z,101925.88
2022-09-20T19:44:33.752Z,101921.44
2022-09-20T19:47:17.573Z,101929.50
2022-09-20T19:49:54.555Z,101933.03
2022-09-20T19:52:23.758Z,101936.59
2022-09-20T19:54:52.647Z,101940.13
2022-09-20T19:57:22.672Z,101942.78
2022-09-20T19:59:55.874Z,101939.31
2022-09-20T20:02:24.439Z,101941.13
2022-09-20T20:04:52.844Z,101948.19
2022-09-20T20:07:28.656Z,101944.69
2022-09-20T20:10:11.367Z,101942.03
2022-09-20T20:12:49.494Z,101942.06
2022-09-20T20:15:30.981Z,101947.41
2022-09-20T20:18:03.540Z,101949.19
2022-09-20T20:20:39.237Z,101949.22
2022-09-20T20:23:21.532Z,101950.13
2022-09-20T20:26:00.231Z,101950.16
2022-09-20T20:28:28.163Z,101948.41
2022-09-20T20:31:00.122Z,101953.72
2022-09-20T20:33:28.150Z,101958.16
2022-09-20T20:35:56.877Z,101951.97
2022-09-20T20:38:26.424Z,101964.38
2022-09-20T20:41:03.926Z,101959.97
2022-09-20T20:43:32.250Z,101959.97
2022-09-20T20:46:01.507Z,101957.34
2022-09-20T20:48:29.882Z,101960.00
2022-09-20T20:51:05.441Z,101963.56
2022-09-20T20:53:34.928Z,101971.50
2022-09-20T20:56:05.781Z,101962.69
2022-09-20T20:58:34.385Z,101975.09
2022-09-20T21:01:08.999Z,101971.53
2022-09-20T21:03:37.375Z,101977.75
2022-09-20T21:06:05.556Z,101979.50
2022-09-20T21:08:35.488Z,101985.69
2022-09-20T21:11:07.416Z,101982.19
2022-09-20T21:13:35.710Z,101978.66
2022-09-20T21:16:10.086Z,101984.88
2022-09-20T21:18:39.616Z,101981.34
2022-09-20T21:21:15.943Z,101984.88
2022-09-20T21:23:45.764Z,101989.28
2022-09-20T21:26:15.497Z,101990.16
2022-09-20T21:28:45.714Z,101993.69
2022-09-20T21:31:14.919Z,101991.97
2022-09-20T21:33:43.973Z,101987.53
2022-09-20T21:36:13.806Z,101995.50
2022-09-20T21:38:42.354Z,101995.50
2022-09-20T21:41:11.766Z,102004.34
2022-09-20T21:43:41.807Z,102005.25
2022-09-20T21:46:15.573Z,102000.81
2022-09-20T21:48:43.406Z,102008.78
2022-09-20T21:51:12.947Z,102007.88
2022-09-20T21:53:41.085Z,102020.22
2022-09-20T21:56:10.855Z,102011.41
2022-09-20T21:58:39.896Z,102015.81
2022-09-20T22:01:11.489Z,102020.25
2022-09-20T22:03:42.130Z,102016.69
2022-09-20T22:06:14.718Z,102021.13
2022-09-20T22:08:46.451Z,102019.34
2022-09-20T22:11:16.071Z,102020.22
2022-09-20T22:13:44.999Z,102023.75
2022-09-20T22:16:14.645Z,102016.72
2022-09-20T22:18:45.385Z,102027.28
2022-09-20T22:21:14.955Z,102026.44
2022-09-20T22:23:43.708Z,102031.69
2022-09-20T22:26:13.693Z,102020.22
2022-09-20T22:28:42.487Z,102031.72
2022-09-20T22:31:12.577Z,102035.22
2022-09-20T22:33:45.151Z,102030.81
2022-09-20T22:36:16.160Z,102030.84
2022-09-20T22:38:45.266Z,102026.41
2022-09-20T22:41:14.109Z,102035.25
2022-09-20T22:43:41.862Z,102029.94
2022-09-20T22:46:11.365Z,102031.69
2022-09-20T22:48:40.086Z,102036.13
2022-09-20T22:51:13.075Z,102034.34
2022-09-20T22:53:41.188Z,102029.91
2022-09-20T22:56:11.459Z,102032.56
2022-09-20T22:58:40.803Z,102029.03
2022-09-20T23:01:10.878Z,102031.66
2022-09-20T23:03:39.413Z,102033.44
2022-09-20T23:06:15.071Z,102024.59
2022-09-20T23:08:43.385Z,102028.13
2022-09-20T23:11:11.235Z,102033.41
2022-09-20T23:13:39.340Z,102028.13
2022-09-20T23:16:14.940Z,102033.41
2022-09-20T23:18:43.381Z,102033.44
2022-09-20T23:21:11.330Z,102036.94
2022-09-20T23:23:42.057Z,102042.25
2022-09-20T23:26:11.570Z,102036.94
2022-09-20T23:28:42.165Z,102037.84
2022-09-20T23:31:11.926Z,102033.41
2022-09-20T23:33:44.724Z,102036.94
2022-09-20T23:36:14.720Z,102033.41
2022-09-20T23:38:44.400Z,102036.03
2022-09-20T23:41:14.507Z,102036.03
2022-09-20T23:43:43.362Z,102036.91
2022-09-20T23:46:12.835Z,102041.31
2022-09-20T23:48:41.445Z,102049.28
2022-09-20T23:51:11.204Z,102043.06
2022-09-20T23:53:39.239Z,102044.84
2022-09-20T23:56:09.559Z,102051.88
2022-09-20T23:58:38.682Z,102052.78
